createdAt,value
2023-03-10T00:01:01.605Z,40.39
2023-03-10T00:02:04.326Z,40.43
2023-03-10T00:03:07.151Z,40.44
2023-03-10T00:04:10.224Z,40.50
2023-03-10T00:05:13.280Z,40.49
2023-03-10T00:06:18.174Z,40.54
2023-03-10T00:07:20.775Z,40.62
2023-03-10T00:08:27.066Z,40.62
2023-03-10T00:09:28.959Z,40.66
2023-03-10T00:10:31.621Z,40.68
2023-03-10T00:11:34.206Z,40.66
2023-03-10T00:12:36.525Z,40.68
2023-03-10T00:13:38.887Z,40.67
2023-03-10T00:14:42.733Z,40.67
2023-03-10T00:15:45.494Z,40.68
2023-03-10T00:16:48.022Z,40.68
2023-03-10T00:17:52.869Z,40.66
2023-03-10T00:18:56.496Z,40.67
2023-03-10T00:19:59.173Z,40.68
2023-03-10T00:21:02.822Z,40.69
2023-03-10T00:22:05.747Z,40.67
2023-03-10T00:23:08.136Z,40.71
2023-03-10T00:24:10.890Z,40.68
2023-03-10T00:25:14.971Z,40.69
2023-03-10T00:26:18.860Z,40.68
2023-03-10T00:27:21.530Z,40.63
2023-03-10T00:28:25.800Z,40.63
2023-03-10T00:29:28.385Z,40.63
2023-03-10T00:30:33.485Z,40.64
2023-03-10T00:31:36.655Z,40.61
2023-03-10T00:32:39.536Z,40.62
2023-03-10T00:33:43.175Z,40.62
2023-03-10T00:34:45.801Z,40.63
2023-03-10T00:35:49.479Z,40.66
2023-03-10T00:36:52.669Z,40.70
2023-03-10T00:37:55.688Z,40.70
2023-03-10T00:39:00.994Z,40.67
2023-03-10T00:40:07.833Z,40.64
2023-03-10T00:41:13.807Z,40.65
2023-03-10T00:42:16.437Z,40.63
2023-03-10T00:43:19.019Z,40.65
2023-03-10T00:44:22.107Z,40.63
2023-03-10T00:45:26.209Z,40.62
2023-03-10T00:46:31.848Z,40.62
2023-03-10T00:47:34.490Z,40.61
2023-03-10T00:48:37.035Z,40.59
2023-03-10T00:49:39.731Z,40.58
2023-03-10T00:50:42.568Z,40.59
2023-03-10T00:51:45.033Z,40.58
2023-03-10T00:52:50.354Z,40.57
2023-03-10T00:53:53.712Z,40.57
2023-03-10T00:54:57.350Z,40.56
2023-03-10T00:57:20.577Z,40.54
2023-03-10T00:58:23.621Z,40.55
2023-03-10T00:59:26.808Z,40.56
2023-03-10T01:00:30.058Z,40.57
2023-03-10T01:01:36.127Z,40.56
2023-03-10T01:02:39.861Z,40.56
2023-03-10T01:03:42.808Z,40.53
2023-03-10T01:04:47.641Z,40.54
2023-03-10T01:05:50.334Z,40.54
2023-03-10T01:06:53.359Z,40.54
2023-03-10T01:07:57.018Z,40.56
2023-03-10T01:09:01.215Z,40.52
2023-03-10T01:10:04.812Z,40.52
2023-03-10T01:11:08.323Z,40.54
2023-03-10T01:12:11.423Z,40.54
2023-03-10T01:13:14.583Z,40.59
2023-03-10T01:14:19.566Z,40.83
2023-03-10T01:15:23.267Z,40.91
2023-03-10T01:16:26.687Z,40.89
2023-03-10T01:17:31.098Z,41.01
2023-03-10T01:18:33.612Z,41.01
2023-03-10T01:19:36.197Z,40.96
2023-03-10T01:20:40.653Z,40.96
2023-03-10T01:21:43.659Z,40.90
2023-03-10T01:22:46.227Z,40.89
2023-03-10T01:23:49.593Z,40.91
2023-03-10T01:24:52.659Z,40.92
2023-03-10T01:25:55.370Z,40.96
2023-03-10T01:26:58.071Z,40.96
2023-03-10T01:28:00.505Z,40.94
2023-03-10T01:29:02.954Z,40.90
2023-03-10T01:30:07.642Z,40.90
2023-03-10T01:31:10.259Z,40.89
2023-03-10T01:32:13.247Z,40.85
2023-03-10T01:33:16.140Z,40.84
2023-03-10T01:34:18.735Z,40.84
2023-03-10T01:35:21.110Z,40.84
2023-03-10T01:36:25.627Z,40.82
2023-03-10T01:37:29.281Z,40.83
2023-03-10T01:38:31.815Z,40.78
2023-03-10T01:39:36.829Z,40.77
2023-03-10T01:40:39.731Z,40.79
2023-03-10T01:41:43.645Z,40.75
2023-03-10T01:42:48.036Z,40.80
2023-03-10T01:43:55.607Z,40.85
2023-03-10T01:45:08.614Z,40.86
2023-03-10T01:46:33.494Z,40.86
2023-03-10T01:47:37.858Z,40.89
2023-03-10T01:48:40.578Z,40.83
2023-03-10T01:49:44.121Z,40.86
2023-03-10T01:50:48.712Z,40.84
2023-03-10T01:51:55.218Z,40.85
2023-03-10T01:52:59.150Z,40.85
2023-03-10T01:54:03.650Z,40.89
2023-03-10T01:55:16.809Z,40.90
2023-03-10T01:56:19.603Z,40.90
2023-03-10T01:57:24.529Z,40.89
2023-03-10T01:58:30.368Z,40.94
2023-03-10T01:59:32.875Z,40.91
2023-03-10T02:00:35.705Z,40.96
2023-03-10T02:01:38.665Z,40.91
2023-03-10T02:02:57.833Z,40.85
2023-03-10T02:04:03.474Z,40.82
2023-03-10T02:05:07.319Z,40.75
2023-03-10T02:06:11.932Z,40.74
2023-03-10T02:07:17.172Z,40.74
2023-03-10T02:08:20.145Z,40.75
2023-03-10T02:09:22.742Z,40.76
2023-03-10T02:10:26.193Z,40.75
2023-03-10T02:11:28.999Z,40.75
2023-03-10T02:12:31.713Z,40.75
2023-03-10T02:13:35.020Z,40.74
2023-03-10T02:14:38.369Z,40.72
2023-03-10T02:15:40.843Z,40.70
2023-03-10T02:16:44.165Z,40.69
2023-03-10T02:17:47.865Z,40.68
2023-03-10T02:18:50.577Z,40.68
2023-03-10T02:20:15.923Z,40.68
2023-03-10T02:21:40.475Z,40.66
2023-03-10T02:22:44.101Z,40.62
2023-03-10T02:24:22.160Z,40.62
2023-03-10T02:27:24.157Z,40.64
2023-03-10T02:28:26.730Z,40.67
2023-03-10T02:29:45.552Z,40.70
2023-03-10T02:31:57.434Z,40.77
2023-03-10T02:33:04.321Z,40.77
2023-03-10T02:34:07.012Z,40.79
2023-03-10T02:35:09.590Z,40.79
2023-03-10T02:36:19.602Z,40.78
2023-03-10T02:37:24.405Z,40.77
2023-03-10T02:38:28.191Z,40.75
2023-03-10T02:39:31.098Z,40.77
2023-03-10T02:40:39.254Z,40.77
2023-03-10T02:41:45.417Z,40.73
2023-03-10T02:42:49.249Z,40.73
2023-03-10T02:43:51.804Z,40.70
2023-03-10T02:44:56.542Z,40.75
2023-03-10T02:46:01.878Z,40.75
2023-03-10T02:47:05.063Z,40.79
2023-03-10T02:48:11.734Z,40.79
2023-03-10T02:49:16.212Z,40.79
2023-03-10T02:50:20.405Z,40.70
2023-03-10T02:51:25.951Z,40.74
2023-03-10T02:52:40.860Z,40.70
2023-03-10T02:53:43.791Z,40.76
2023-03-10T02:54:47.858Z,40.72
2023-03-10T02:55:51.203Z,40.69
2023-03-10T02:56:54.106Z,40.66
2023-03-10T02:57:57.822Z,40.69
2023-03-10T02:59:01.198Z,40.64
2023-03-10T03:00:06.722Z,40.69
2023-03-10T03:01:09.498Z,40.68
2023-03-10T03:02:13.881Z,40.66
2023-03-10T03:03:17.025Z,40.74
2023-03-10T03:04:20.143Z,40.77
2023-03-10T03:05:23.521Z,40.73
2023-03-10T03:06:26.841Z,40.68
2023-03-10T03:07:30.641Z,40.68
2023-03-10T03:08:33.521Z,40.66
2023-03-10T03:09:36.333Z,40.63
2023-03-10T03:10:40.029Z,40.62
2023-03-10T03:11:43.936Z,40.63
2023-03-10T03:12:50.068Z,40.64
2023-03-10T03:13:56.002Z,40.61
2023-03-10T03:14:59.356Z,40.58
2023-03-10T03:16:02.257Z,40.60
2023-03-10T03:17:05.360Z,40.61
2023-03-10T03:18:08.125Z,40.55
2023-03-10T03:19:11.123Z,40.52
2023-03-10T03:20:14.231Z,40.50
2023-03-10T03:21:18.418Z,40.46
2023-03-10T03:22:21.771Z,40.46
2023-03-10T03:23:24.804Z,40.48
2023-03-10T03:24:27.931Z,40.53
2023-03-10T03:25:30.636Z,40.66
2023-03-10T03:26:33.921Z,40.67
2023-03-10T03:27:44.749Z,40.73
2023-03-10T03:28:47.553Z,40.75
2023-03-10T03:29:50.565Z,40.75
2023-03-10T03:30:53.282Z,40.73
2023-03-10T03:31:56.217Z,40.75
2023-03-10T03:33:01.591Z,40.68
2023-03-10T03:34:04.715Z,40.64
2023-03-10T03:35:18.672Z,40.59
2023-03-10T03:36:21.399Z,40.58
2023-03-10T03:37:24.457Z,40.55
2023-03-10T03:38:28.527Z,40.59
2023-03-10T03:39:31.283Z,40.61
2023-03-10T03:40:36.728Z,40.58
2023-03-10T03:41:40.345Z,40.61
2023-03-10T03:42:45.254Z,40.71
2023-03-10T03:43:48.711Z,40.76
2023-03-10T03:44:51.854Z,40.77
2023-03-10T03:45:55.075Z,40.78
2023-03-10T03:46:58.610Z,40.84
2023-03-10T03:48:01.337Z,40.82
2023-03-10T03:49:05.550Z,40.92
2023-03-10T03:50:10.113Z,41.00
2023-03-10T03:51:12.941Z,41.15
2023-03-10T03:52:16.587Z,41.18
2023-03-10T03:53:19.346Z,41.31
2023-03-10T03:54:22.074Z,41.32
2023-03-10T03:55:25.886Z,41.37
2023-03-10T03:56:28.967Z,41.40
2023-03-10T03:57:32.102Z,41.46
2023-03-10T03:58:35.418Z,41.43
2023-03-10T03:59:38.651Z,41.45
2023-03-10T04:00:41.761Z,41.55
2023-03-10T04:01:44.798Z,41.61
2023-03-10T04:02:47.686Z,41.61
2023-03-10T04:03:50.116Z,41.62
2023-03-10T04:04:54.942Z,41.66
2023-03-10T04:05:58.562Z,41.75
2023-03-10T04:07:01.441Z,41.78
2023-03-10T04:08:06.300Z,41.80
2023-03-10T04:09:09.921Z,41.83
2023-03-10T04:10:14.799Z,41.85
2023-03-10T04:11:18.367Z,41.85
2023-03-10T04:12:21.828Z,41.85
2023-03-10T04:13:24.362Z,41.90
2023-03-10T04:14:26.910Z,41.96
2023-03-10T04:15:30.308Z,42.00
2023-03-10T04:16:33.496Z,42.16
2023-03-10T04:17:39.163Z,42.24
2023-03-10T04:18:41.790Z,42.26
2023-03-10T04:19:54.112Z,42.33
2023-03-10T04:20:51.941Z,42.33
2023-03-10T04:21:55.238Z,42.12
2023-03-10T04:22:58.518Z,42.08
2023-03-10T04:24:03.283Z,42.18
2023-03-10T04:25:09.089Z,42.17
2023-03-10T04:26:11.969Z,42.13
2023-03-10T04:27:15.257Z,42.17
2023-03-10T04:28:18.168Z,42.20
2023-03-10T04:29:23.961Z,42.11
2023-03-10T04:30:29.394Z,42.08
2023-03-10T04:31:32.849Z,42.04
2023-03-10T04:32:36.578Z,41.98
2023-03-10T04:33:39.226Z,41.96
2023-03-10T04:34:42.310Z,41.83
2023-03-10T04:35:48.344Z,41.80
2023-03-10T04:36:52.360Z,41.76
2023-03-10T04:37:55.828Z,41.70
2023-03-10T04:39:00.120Z,41.74
2023-03-10T04:40:07.934Z,41.70
2023-03-10T04:41:11.622Z,41.69
2023-03-10T04:42:16.341Z,41.74
2023-03-10T04:43:18.925Z,41.80
2023-03-10T04:44:30.971Z,41.83
2023-03-10T04:45:26.975Z,41.83
2023-03-10T04:46:31.187Z,41.82
2023-03-10T04:47:33.862Z,41.76
2023-03-10T04:48:36.321Z,41.74
2023-03-10T04:49:39.241Z,41.72
2023-03-10T04:50:43.900Z,41.70
2023-03-10T04:51:48.359Z,41.65
2023-03-10T04:52:52.078Z,41.60
2023-03-10T04:53:59.880Z,41.60
2023-03-10T04:55:05.391Z,41.59
2023-03-10T04:56:08.440Z,41.57
2023-03-10T04:57:12.696Z,41.58
2023-03-10T04:58:15.754Z,41.59
2023-03-10T04:59:21.265Z,41.59
2023-03-10T05:00:24.379Z,41.69
2023-03-10T05:01:29.928Z,41.80
2023-03-10T05:02:34.919Z,41.80
2023-03-10T05:03:39.165Z,41.76
2023-03-10T05:04:42.952Z,41.78
2023-03-10T05:05:46.848Z,41.85
2023-03-10T05:06:50.898Z,41.86
2023-03-10T05:07:58.190Z,41.86
2023-03-10T05:09:02.741Z,41.81
2023-03-10T05:10:07.157Z,41.80
2023-03-10T05:11:10.656Z,41.80
2023-03-10T05:12:14.336Z,41.74
2023-03-10T05:13:17.511Z,41.63
2023-03-10T05:14:20.229Z,41.52
2023-03-10T05:15:23.111Z,41.37
2023-03-10T05:16:25.938Z,41.25
2023-03-10T05:17:30.068Z,41.11
2023-03-10T05:18:32.756Z,40.99
2023-03-10T05:19:36.855Z,40.82
2023-03-10T05:20:40.901Z,40.72
2023-03-10T05:21:44.067Z,40.63
2023-03-10T05:22:46.654Z,40.49
2023-03-10T05:23:49.937Z,40.35
2023-03-10T05:24:53.473Z,40.26
2023-03-10T05:25:56.238Z,39.83
2023-03-10T05:27:01.729Z,39.83
2023-03-10T05:28:04.670Z,39.89
2023-03-10T05:29:07.377Z,39.86
2023-03-10T05:30:14.944Z,39.72
2023-03-10T05:31:20.359Z,39.55
2023-03-10T05:32:24.460Z,39.44
2023-03-10T05:33:31.277Z,39.37
2023-03-10T05:34:33.593Z,39.28
2023-03-10T05:35:38.402Z,39.21
2023-03-10T05:36:42.394Z,39.13
2023-03-10T05:37:45.370Z,39.00
2023-03-10T05:38:48.205Z,38.96
2023-03-10T05:39:51.013Z,38.86
2023-03-10T05:40:55.994Z,38.83
2023-03-10T05:41:59.075Z,38.88
2023-03-10T05:43:03.376Z,38.93
2023-03-10T05:44:06.082Z,39.04
2023-03-10T05:45:10.754Z,39.13
2023-03-10T05:46:14.148Z,39.22
2023-03-10T05:47:21.986Z,39.32
2023-03-10T05:48:25.782Z,39.42
2023-03-10T05:49:28.869Z,39.55
2023-03-10T05:50:32.379Z,39.66
2023-03-10T05:51:35.886Z,39.74
2023-03-10T05:52:40.158Z,39.87
2023-03-10T05:53:43.064Z,39.99
2023-03-10T05:54:49.237Z,40.09
2023-03-10T05:55:53.225Z,40.19
2023-03-10T05:56:56.654Z,40.28
2023-03-10T05:57:59.794Z,40.38
2023-03-10T05:59:02.566Z,40.42
2023-03-10T06:00:10.856Z,40.51
2023-03-10T06:01:17.690Z,40.61
2023-03-10T06:02:20.670Z,40.63
2023-03-10T06:03:25.323Z,40.66
2023-03-10T06:04:30.105Z,40.74
2023-03-10T06:05:32.718Z,40.76
2023-03-10T06:06:35.858Z,40.87
2023-03-10T06:07:38.783Z,40.90
2023-03-10T06:08:43.433Z,40.93
2023-03-10T06:09:47.358Z,40.98
2023-03-10T06:10:53.195Z,40.96
2023-03-10T06:11:57.003Z,41.07
2023-03-10T06:12:59.602Z,41.10
2023-03-10T06:14:03.716Z,41.17
2023-03-10T06:15:07.806Z,41.21
2023-03-10T06:16:11.042Z,41.17
2023-03-10T06:17:13.983Z,41.18
2023-03-10T06:18:18.169Z,41.18
2023-03-10T06:19:21.832Z,41.20
2023-03-10T06:20:25.638Z,41.22
2023-03-10T06:21:28.878Z,41.17
2023-03-10T06:22:31.585Z,41.17
2023-03-10T06:23:34.864Z,41.09
2023-03-10T06:24:37.810Z,41.01
2023-03-10T06:25:42.330Z,40.89
2023-03-10T06:26:45.272Z,40.74
2023-03-10T06:27:48.354Z,40.63
2023-03-10T06:28:50.932Z,40.51
2023-03-10T06:29:55.053Z,40.44
2023-03-10T06:32:13.020Z,40.22
2023-03-10T06:33:15.642Z,40.14
2023-03-10T06:34:18.524Z,40.09
2023-03-10T06:35:22.136Z,39.94
2023-03-10T06:36:28.130Z,39.89
2023-03-10T06:37:31.367Z,39.77
2023-03-10T06:38:35.067Z,39.60
2023-03-10T06:39:41.767Z,39.58
2023-03-10T06:40:44.540Z,39.61
2023-03-10T06:41:47.538Z,39.49
2023-03-10T06:42:50.671Z,39.35
2023-03-10T06:43:53.379Z,39.35
2023-03-10T06:44:56.162Z,39.22
2023-03-10T06:45:58.714Z,39.24
2023-03-10T06:47:04.169Z,39.26
2023-03-10T06:48:06.724Z,39.35
2023-03-10T06:49:12.100Z,39.31
2023-03-10T06:50:15.510Z,39.21
2023-03-10T06:51:20.206Z,39.16
2023-03-10T06:52:23.329Z,39.07
2023-03-10T06:53:27.067Z,39.07
2023-03-10T06:54:29.460Z,39.07
2023-03-10T06:55:32.604Z,39.08
2023-03-10T06:56:35.290Z,39.04
2023-03-10T06:57:37.922Z,39.03
2023-03-10T06:58:41.387Z,39.00
2023-03-10T06:59:43.963Z,38.96
2023-03-10T07:00:46.633Z,38.86
2023-03-10T07:01:50.184Z,38.81
2023-03-10T07:02:53.940Z,38.81
2023-03-10T07:03:56.892Z,38.81
2023-03-10T07:04:59.447Z,38.80
2023-03-10T07:06:02.272Z,38.72
2023-03-10T07:07:05.232Z,38.70
2023-03-10T07:08:08.773Z,38.65
2023-03-10T07:09:11.264Z,38.60
2023-03-10T07:10:15.778Z,38.63
2023-03-10T07:11:18.417Z,38.59
2023-03-10T07:12:21.122Z,38.50
2023-03-10T07:13:23.814Z,38.47
2023-03-10T07:14:26.335Z,38.46
2023-03-10T07:15:29.017Z,38.50
2023-03-10T07:16:31.969Z,38.55
2023-03-10T07:17:34.994Z,38.55
2023-03-10T07:18:37.627Z,38.55
2023-03-10T07:19:40.401Z,38.55
2023-03-10T07:20:47.579Z,38.48
2023-03-10T07:21:51.663Z,38.39
2023-03-10T07:22:54.704Z,38.32
2023-03-10T07:23:59.020Z,38.29
2023-03-10T07:25:01.864Z,38.21
2023-03-10T07:26:07.023Z,38.18
2023-03-10T07:27:09.821Z,38.13
2023-03-10T07:28:13.607Z,38.10
2023-03-10T07:29:16.403Z,38.08
2023-03-10T07:30:20.383Z,38.08
2023-03-10T07:31:23.882Z,38.07
2023-03-10T07:32:27.581Z,38.05
2023-03-10T07:33:30.929Z,38.06
2023-03-10T07:34:33.532Z,38.05
2023-03-10T07:35:37.070Z,38.06
2023-03-10T07:36:41.396Z,38.06
2023-03-10T07:37:44.446Z,37.89
2023-03-10T07:38:48.529Z,37.86
2023-03-10T07:39:56.117Z,37.80
2023-03-10T07:41:00.327Z,37.78
2023-03-10T07:42:03.697Z,37.76
2023-03-10T07:43:08.668Z,37.74
2023-03-10T07:44:11.750Z,37.71
2023-03-10T07:45:14.298Z,37.72
2023-03-10T07:46:17.762Z,37.70
2023-03-10T07:47:20.422Z,37.72
2023-03-10T07:48:23.043Z,37.71
2023-03-10T07:49:25.745Z,37.67
2023-03-10T07:50:28.345Z,37.66
2023-03-10T07:51:31.325Z,37.61
2023-03-10T07:52:33.935Z,37.54
2023-03-10T07:53:37.812Z,37.53
2023-03-10T07:54:40.534Z,37.44
2023-03-10T07:55:44.077Z,37.48
2023-03-10T07:56:49.991Z,37.41
2023-03-10T07:57:52.309Z,37.37
2023-03-10T07:58:54.863Z,37.32
2023-03-10T07:59:57.451Z,37.33
2023-03-10T08:01:00.776Z,37.32
2023-03-10T08:02:03.707Z,37.33
2023-03-10T08:03:07.279Z,37.33
2023-03-10T08:04:13.845Z,37.26
2023-03-10T08:05:17.533Z,37.22
2023-03-10T08:07:36.226Z,37.05
2023-03-10T08:08:39.877Z,37.01
2023-03-10T08:09:43.294Z,37.13
2023-03-10T08:10:46.707Z,37.11
2023-03-10T08:11:49.400Z,37.13
2023-03-10T08:12:54.420Z,37.19
2023-03-10T08:13:57.542Z,37.26
2023-03-10T08:15:00.185Z,36.76
2023-03-10T08:16:03.348Z,36.99
2023-03-10T08:17:07.473Z,36.21
2023-03-10T08:18:10.640Z,35.87
2023-03-10T08:19:14.292Z,36.03
2023-03-10T08:20:18.553Z,36.20
2023-03-10T08:21:21.460Z,35.01
2023-03-10T08:22:24.289Z,34.93
2023-03-10T08:23:26.711Z,34.28
2023-03-10T08:24:29.260Z,34.28
2023-03-10T08:25:32.174Z,33.83
2023-03-10T08:26:35.569Z,33.64
2023-03-10T08:27:40.225Z,34.04
2023-03-10T08:28:44.127Z,33.92
2023-03-10T08:29:46.856Z,34.24
2023-03-10T08:31:03.743Z,34.44
2023-03-10T08:31:54.189Z,34.43
2023-03-10T08:32:57.169Z,33.65
2023-03-10T08:33:59.803Z,32.93
2023-03-10T08:35:04.378Z,32.93
2023-03-10T08:36:21.452Z,32.38
2023-03-10T08:37:25.156Z,33.21
2023-03-10T08:38:28.281Z,33.77
2023-03-10T08:39:30.865Z,34.02
2023-03-10T08:40:33.495Z,33.76
2023-03-10T08:41:37.885Z,33.21
2023-03-10T08:42:40.905Z,33.29
2023-03-10T08:43:43.523Z,32.65
2023-03-10T08:44:45.991Z,32.33
2023-03-10T08:45:49.016Z,32.33
2023-03-10T08:46:52.642Z,32.48
2023-03-10T08:47:55.370Z,32.27
2023-03-10T08:48:58.041Z,32.23
2023-03-10T08:50:00.629Z,32.48
2023-03-10T08:51:03.770Z,32.62
2023-03-10T08:52:08.031Z,32.68
2023-03-10T08:53:12.135Z,33.03
2023-03-10T08:54:17.076Z,32.97
2023-03-10T08:55:19.946Z,32.96
2023-03-10T08:56:23.011Z,33.01
2023-03-10T08:57:26.614Z,32.62
2023-03-10T08:58:29.531Z,32.46
2023-03-10T08:59:32.568Z,32.97
2023-03-10T09:00:36.454Z,32.43
2023-03-10T09:01:39.517Z,32.41
2023-03-10T09:02:42.349Z,32.27
2023-03-10T09:03:45.386Z,33.34
2023-03-10T09:04:48.868Z,33.72
2023-03-10T09:05:52.432Z,34.08
2023-03-10T09:06:56.864Z,34.15
2023-03-10T09:07:59.500Z,34.34
2023-03-10T09:09:03.038Z,34.44
2023-03-10T09:10:08.577Z,34.56
2023-03-10T09:11:18.194Z,34.63
2023-03-10T09:12:20.802Z,34.68
2023-03-10T09:13:23.699Z,34.78
2023-03-10T09:14:26.903Z,34.89
2023-03-10T09:15:30.648Z,34.95
2023-03-10T09:16:34.810Z,35.07
2023-03-10T09:17:40.613Z,35.14
2023-03-10T09:18:42.721Z,35.26
2023-03-10T09:19:45.359Z,35.33
2023-03-10T09:20:48.882Z,35.38
2023-03-10T09:21:51.535Z,35.38
2023-03-10T09:22:54.673Z,35.29
2023-03-10T09:23:57.281Z,34.50
2023-03-10T09:25:01.697Z,34.87
2023-03-10T09:26:04.925Z,34.25
2023-03-10T09:27:08.990Z,33.25
2023-03-10T09:28:11.585Z,33.77
2023-03-10T09:29:14.618Z,34.18
2023-03-10T09:30:18.123Z,34.71
2023-03-10T09:31:32.585Z,34.80
2023-03-10T09:32:36.448Z,33.99
2023-03-10T09:33:39.736Z,33.25
2023-03-10T09:34:42.324Z,33.23
2023-03-10T09:35:52.980Z,33.10
2023-03-10T09:36:51.159Z,33.72
2023-03-10T09:37:54.364Z,34.40
2023-03-10T09:38:57.849Z,34.10
2023-03-10T09:40:01.591Z,34.40
2023-03-10T09:41:18.381Z,34.24
2023-03-10T09:42:38.716Z,34.36
2023-03-10T09:43:48.285Z,34.05
2023-03-10T09:45:00.373Z,34.01
2023-03-10T09:46:20.125Z,33.24
2023-03-10T09:47:42.508Z,34.38
2023-03-10T09:48:54.910Z,34.63
2023-03-10T09:50:16.069Z,33.69
2023-03-10T09:51:22.236Z,34.43
2023-03-10T09:52:28.087Z,33.99
2023-03-10T09:54:10.785Z,33.80
2023-03-10T09:55:22.264Z,34.71
2023-03-10T09:57:46.242Z,34.37
2023-03-10T10:00:07.703Z,33.63
2023-03-10T10:01:16.617Z,34.25
2023-03-10T10:03:52.073Z,34.06
2023-03-10T10:04:44.672Z,34.29
2023-03-10T10:05:49.619Z,34.81
2023-03-10T10:06:52.843Z,34.61
2023-03-10T10:07:56.825Z,34.31
2023-03-10T10:10:24.231Z,34.17
2023-03-10T10:11:27.149Z,33.88
2023-03-10T10:12:29.842Z,34.59
2023-03-10T10:13:34.661Z,34.56
2023-03-10T10:14:40.343Z,35.52
2023-03-10T10:15:50.055Z,35.85
2023-03-10T10:19:57.027Z,36.61
2023-03-10T10:21:15.782Z,36.75
2023-03-10T10:22:24.416Z,36.83
2023-03-10T10:23:36.377Z,36.89
2023-03-10T10:24:40.052Z,36.92
2023-03-10T10:25:42.855Z,36.96
2023-03-10T10:26:45.794Z,37.03
2023-03-10T10:29:14.793Z,37.08
2023-03-10T10:30:27.578Z,37.18
2023-03-10T10:31:34.967Z,37.31
2023-03-10T10:32:58.728Z,37.35
2023-03-10T10:34:20.076Z,37.34
2023-03-10T10:35:24.661Z,37.32
2023-03-10T10:37:48.749Z,37.34
2023-03-10T10:38:53.156Z,37.40
2023-03-10T10:39:56.921Z,37.45
2023-03-10T10:41:08.136Z,37.55
2023-03-10T10:42:27.360Z,37.57
2023-03-10T10:43:30.862Z,37.54
2023-03-10T10:44:37.763Z,37.49
2023-03-10T10:45:41.397Z,37.54
2023-03-10T10:46:52.773Z,37.53
2023-03-10T10:47:56.248Z,37.51
2023-03-10T10:49:05.203Z,37.54
2023-03-10T10:50:23.191Z,37.54
2023-03-10T10:52:45.720Z,37.53
2023-03-10T10:53:49.142Z,37.59
2023-03-10T10:54:58.359Z,37.63
2023-03-10T10:56:15.702Z,37.64
2023-03-10T10:57:30.565Z,37.64
2023-03-10T10:58:37.860Z,37.62
2023-03-10T10:59:40.789Z,37.60
2023-03-10T11:00:44.637Z,37.55
2023-03-10T11:02:00.540Z,37.57
2023-03-10T11:03:22.284Z,37.54
2023-03-10T11:04:27.302Z,37.49
2023-03-10T11:05:38.561Z,37.41
2023-03-10T11:06:42.213Z,37.45
2023-03-10T11:07:44.926Z,37.43
2023-03-10T11:08:50.249Z,37.46
2023-03-10T11:09:54.830Z,37.46
2023-03-10T11:11:31.190Z,37.50
2023-03-10T11:12:37.323Z,37.54
2023-03-10T11:14:14.519Z,37.60
2023-03-10T11:15:28.204Z,37.69
2023-03-10T11:16:47.736Z,37.65
2023-03-10T11:17:54.426Z,37.69
2023-03-10T11:19:03.694Z,37.63
2023-03-10T11:20:19.559Z,37.53
2023-03-10T11:21:27.994Z,37.52
2023-03-10T11:22:42.434Z,37.47
2023-03-10T11:25:32.328Z,37.43
2023-03-10T11:26:53.880Z,37.44
2023-03-10T11:28:18.870Z,37.47
2023-03-10T11:29:40.990Z,37.49
2023-03-10T11:30:53.492Z,37.55
2023-03-10T11:32:22.968Z,37.59
2023-03-10T11:33:47.716Z,37.67
2023-03-10T11:34:52.581Z,37.66
2023-03-10T11:37:22.764Z,37.62
2023-03-10T11:38:37.989Z,37.63
2023-03-10T11:39:58.307Z,37.67
2023-03-10T11:41:20.808Z,37.68
2023-03-10T11:42:33.103Z,37.66
2023-03-10T11:43:54.756Z,37.61
2023-03-10T11:45:03.881Z,37.58
2023-03-10T11:46:10.538Z,37.63
2023-03-10T11:47:37.067Z,37.59
2023-03-10T11:50:40.862Z,37.64
2023-03-10T11:51:45.964Z,37.77
2023-03-10T11:52:48.456Z,37.84
2023-03-10T11:53:55.103Z,37.85
2023-03-10T11:55:03.718Z,38.00
2023-03-10T11:56:09.169Z,37.99
2023-03-10T11:57:19.958Z,37.97
2023-03-10T11:58:33.459Z,37.97
2023-03-10T11:59:38.142Z,38.04
2023-03-10T12:00:42.164Z,38.04
2023-03-10T12:01:49.270Z,37.99
2023-03-10T12:03:07.889Z,38.00
2023-03-10T12:04:20.958Z,38.08
2023-03-10T12:05:25.285Z,38.05
2023-03-10T12:06:41.494Z,38.08
2023-03-10T12:07:48.607Z,38.13
2023-03-10T12:08:51.582Z,38.06
2023-03-10T12:09:57.073Z,38.10
2023-03-10T12:11:00.390Z,38.04
2023-03-10T12:12:03.495Z,37.96
2023-03-10T12:13:08.126Z,37.88
2023-03-10T12:14:10.909Z,37.91
2023-03-10T12:16:36.207Z,37.91
2023-03-10T12:17:38.907Z,37.84
2023-03-10T12:18:41.454Z,37.83
2023-03-10T12:20:14.718Z,37.79
2023-03-10T12:22:51.235Z,37.72
2023-03-10T12:23:57.940Z,37.71
2023-03-10T12:25:00.374Z,37.71
2023-03-10T12:26:04.340Z,37.72
2023-03-10T12:27:07.994Z,37.72
2023-03-10T12:28:19.396Z,37.70
2023-03-10T12:29:28.545Z,37.66
2023-03-10T12:30:52.572Z,37.65
2023-03-10T12:31:56.742Z,37.64
2023-03-10T12:32:59.336Z,37.59
2023-03-10T12:34:10.699Z,37.58
2023-03-10T12:37:11.051Z,37.53
2023-03-10T12:38:30.003Z,37.54
2023-03-10T12:40:51.276Z,37.56
2023-03-10T12:42:05.291Z,37.58
2023-03-10T12:45:24.872Z,37.54
2023-03-10T12:46:54.543Z,37.54
2023-03-10T12:49:33.785Z,37.54
2023-03-10T12:50:45.956Z,37.59
2023-03-10T12:51:56.294Z,37.59
2023-03-10T12:53:03.212Z,37.61
2023-03-10T12:54:34.159Z,37.60
2023-03-10T12:55:36.854Z,37.59
2023-03-10T12:56:41.597Z,37.54
2023-03-10T12:57:50.646Z,37.58
2023-03-10T12:59:00.349Z,37.55
2023-03-10T13:00:07.149Z,37.57
2023-03-10T13:01:12.181Z,37.54
2023-03-10T13:02:31.569Z,37.54
2023-03-10T13:03:49.727Z,37.56
2023-03-10T13:04:57.010Z,37.53
2023-03-10T13:06:18.775Z,37.52
2023-03-10T13:07:21.226Z,37.53
2023-03-10T13:08:34.120Z,37.51
2023-03-10T13:09:38.437Z,36.18
2023-03-10T13:10:42.244Z,36.90
2023-03-10T13:12:00.535Z,36.08
2023-03-10T13:13:05.791Z,36.35
2023-03-10T13:14:18.012Z,36.58
2023-03-10T13:15:27.560Z,36.53
2023-03-10T13:16:30.589Z,35.67
2023-03-10T13:17:34.571Z,34.94
2023-03-10T13:18:38.196Z,35.71
2023-03-10T13:19:41.992Z,35.58
2023-03-10T13:20:46.384Z,35.12
2023-03-10T13:21:49.920Z,35.05
2023-03-10T13:22:59.018Z,35.24
2023-03-10T13:24:03.745Z,33.73
2023-03-10T13:25:15.099Z,34.06
2023-03-10T13:26:17.812Z,34.47
2023-03-10T13:27:31.319Z,34.16
2023-03-10T13:31:31.684Z,33.87
2023-03-10T13:32:34.319Z,34.15
2023-03-10T13:33:50.277Z,33.99
2023-03-10T13:34:43.515Z,34.63
2023-03-10T13:35:46.762Z,34.37
2023-03-10T13:36:49.382Z,34.15
2023-03-10T13:38:12.351Z,34.34
2023-03-10T13:39:17.652Z,34.18
2023-03-10T13:40:20.644Z,32.61
2023-03-10T13:41:23.559Z,33.91
2023-03-10T13:42:37.303Z,33.85
2023-03-10T13:43:45.260Z,34.18
2023-03-10T13:44:50.896Z,34.40
2023-03-10T13:47:20.707Z,32.58
2023-03-10T13:48:24.463Z,33.82
2023-03-10T13:49:32.679Z,33.37
2023-03-10T13:50:38.651Z,33.79
2023-03-10T13:52:01.900Z,33.81
2023-03-10T13:53:04.645Z,33.35
2023-03-10T13:54:13.926Z,33.36
2023-03-10T13:55:18.067Z,33.82
2023-03-10T13:56:31.953Z,33.79
2023-03-10T13:57:35.267Z,34.03
2023-03-10T13:58:37.661Z,33.96
2023-03-10T13:59:40.903Z,33.09
2023-03-10T14:00:46.530Z,33.09
2023-03-10T14:01:54.009Z,32.68
2023-03-10T14:02:57.027Z,33.68
2023-03-10T14:04:06.293Z,33.40
2023-03-10T14:06:29.552Z,33.91
2023-03-10T14:07:35.480Z,33.98
2023-03-10T14:08:38.249Z,34.18
2023-03-10T14:09:42.172Z,34.25
2023-03-10T14:10:45.273Z,34.34
2023-03-10T14:11:49.023Z,34.28
2023-03-10T14:12:54.426Z,34.32
2023-03-10T14:13:58.445Z,34.28
2023-03-10T14:15:20.844Z,34.02
2023-03-10T14:16:50.172Z,32.62
2023-03-10T14:18:13.740Z,33.80
2023-03-10T14:19:38.223Z,33.95
2023-03-10T14:22:01.954Z,33.41
2023-03-10T14:23:26.791Z,32.96
2023-03-10T14:24:31.110Z,33.81
2023-03-10T14:25:34.381Z,34.08
2023-03-10T14:26:38.509Z,34.24
2023-03-10T14:28:56.502Z,32.93
2023-03-10T14:30:00.608Z,34.09
2023-03-10T14:31:05.088Z,34.26
2023-03-10T14:32:11.762Z,34.41
2023-03-10T14:33:15.083Z,34.43
2023-03-10T14:34:18.246Z,34.48
2023-03-10T14:35:22.693Z,34.25
2023-03-10T14:36:25.619Z,34.27
2023-03-10T14:37:29.497Z,34.38
2023-03-10T14:38:33.118Z,34.58
2023-03-10T14:39:36.443Z,34.62
2023-03-10T14:40:47.402Z,34.50
2023-03-10T14:41:50.604Z,34.62
2023-03-10T14:42:54.051Z,34.39
2023-03-10T14:44:00.379Z,34.10
2023-03-10T14:45:08.812Z,34.08
2023-03-10T14:46:13.071Z,34.04
2023-03-10T14:47:16.794Z,33.94
2023-03-10T14:48:22.093Z,33.81